sensor_id;sensor_type;location;lat;lon;timestamp;noise_LAeq;noise_LA_min;noise_LA_max;noise_LA01;noise_LA95
42701;Laerm;28316;49.504;8.526;2023-01-29T00:01:46;41.74;39.58;43.04;;
42701;Laerm;28316;49.504;8.526;2023-01-29T00:04:12;41.74;40.13;43.04;;
42701;Laerm;28316;49.504;8.526;2023-01-29T00:06:38;41.75;40.13;43.04;;
42701;Laerm;28316;49.504;8.526;2023-01-29T00:09:04;41.74;40.13;42.93;;
42701;Laerm;28316;49.504;8.526;2023-01-29T00:11:30;41.73;40.13;43.09;;
42701;Laerm;28316;49.504;8.526;2023-01-29T00:13:57;41.71;40.13;42.98;;
42701;Laerm;28316;49.504;8.526;2023-01-29T00:16:23;41.72;40.03;42.93;;
42701;Laerm;28316;49.504;8.526;2023-01-29T00:18:49;41.72;40.03;43.19;;
42701;Laerm;28316;49.504;8.526;2023-01-29T00:21:20;41.75;39.34;43.14;;
42701;Laerm;28316;49.504;8.526;2023-01-29T00:23:47;41.76;39.81;43.14;;
42701;Laerm;28316;49.504;8.526;2023-01-29T00:26:14;41.79;40.23;43.19;;
42701;Laerm;28316;49.504;8.526;2023-01-29T00:28:40;41.79;40.13;43.14;;
42701;Laerm;28316;49.504;8.526;2023-01-29T00:31:08;41.80;40.03;43.04;;
42701;Laerm;28316;49.504;8.526;2023-01-29T00:33:34;41.82;40.33;43.14;;
42701;Laerm;28316;49.504;8.526;2023-01-29T00:36:04;41.83;40.18;43.09;;
42701;Laerm;28316;49.504;8.526;2023-01-29T00:38:32;41.82;40.33;43.09;;
42701;Laerm;28316;49.504;8.526;2023-01-29T00:41:09;41.82;40.13;43.24;;
42701;Laerm;28316;49.504;8.526;2023-01-29T00:43:54;41.82;40.13;43.04;;
42701;Laerm;28316;49.504;8.526;2023-01-29T00:46:38;41.83;40.08;43.09;;
42701;Laerm;28316;49.504;8.526;2023-01-29T00:49:06;41.80;40.23;43.19;;
42701;Laerm;28316;49.504;8.526;2023-01-29T00:51:32;41.82;40.13;43.34;;
42701;Laerm;28316;49.504;8.526;2023-01-29T00:53:58;41.82;40.23;43.09;;
42701;Laerm;28316;49.504;8.526;2023-01-29T00:56:28;41.83;40.43;43.14;;
42701;Laerm;28316;49.504;8.526;2023-01-29T00:58:55;41.84;40.13;42.98;;
42701;Laerm;28316;49.504;8.526;2023-01-29T01:01:22;41.85;40.33;43.24;;
42701;Laerm;28316;49.504;8.526;2023-01-29T01:04:08;41.84;40.23;43.24;;
42701;Laerm;28316;49.504;8.526;2023-01-29T01:06:37;41.85;39.81;43.34;;
42701;Laerm;28316;49.504;8.526;2023-01-29T01:09:04;41.85;40.23;43.29;;
42701;Laerm;28316;49.504;8.526;2023-01-29T01:11:48;41.86;40.23;43.29;;
42701;Laerm;28316;49.504;8.526;2023-01-29T01:14:14;41.85;40.43;43.19;;
42701;Laerm;28316;49.504;8.526;2023-01-29T01:16:39;41.85;40.23;43.09;;
42701;Laerm;28316;49.504;8.526;2023-01-29T01:19:05;41.85;40.43;43.19;;
42701;Laerm;28316;49.504;8.526;2023-01-29T01:21:31;41.84;40.03;43.33;;
42701;Laerm;28316;49.504;8.526;2023-01-29T01:23:57;41.82;40.23;43.09;;
42701;Laerm;28316;49.504;8.526;2023-01-29T01:26:23;41.79;39.81;43.04;;
42701;Laerm;28316;49.504;8.526;2023-01-29T01:28:48;41.75;40.23;43.14;;
42701;Laerm;28316;49.504;8.526;2023-01-29T01:31:14;41.75;40.13;43.04;;
42701;Laerm;28316;49.504;8.526;2023-01-29T01:33:40;41.75;40.33;43.04;;
42701;Laerm;28316;49.504;8.526;2023-01-29T01:36:07;41.76;40.13;43.04;;
42701;Laerm;28316;49.504;8.526;2023-01-29T01:38:36;41.78;40.03;43.14;;
42701;Laerm;28316;49.504;8.526;2023-01-29T01:41:19;41.78;40.13;43.09;;
42701;Laerm;28316;49.504;8.526;2023-01-29T01:44:05;41.76;40.13;42.98;;
42701;Laerm;28316;49.504;8.526;2023-01-29T01:46:36;41.78;40.13;43.09;;
42701;Laerm;28316;49.504;8.526;2023-01-29T01:49:10;41.76;40.13;43.14;;
42701;Laerm;28316;49.504;8.526;2023-01-29T01:51:45;41.74;40.03;42.98;;
42701;Laerm;28316;49.504;8.526;2023-01-29T01:54:24;41.75;40.13;43.09;;
42701;Laerm;28316;49.504;8.526;2023-01-29T01:56:57;41.73;39.46;43.09;;
42701;Laerm;28316;49.504;8.526;2023-01-29T01:59:35;41.73;39.81;43.14;;
42701;Laerm;28316;49.504;8.526;2023-01-29T02:02:02;41.72;39.92;43.24;;
42701;Laerm;28316;49.504;8.526;2023-01-29T02:04:47;41.71;39.92;43.04;;
42701;Laerm;28316;49.504;8.526;2023-01-29T02:07:33;41.71;39.92;42.98;;
42701;Laerm;28316;49.504;8.526;2023-01-29T02:10:18;41.72;40.23;42.93;;
42701;Laerm;28316;49.504;8.526;2023-01-29T02:12:45;41.73;39.92;42.82;;
42701;Laerm;28316;49.504;8.526;2023-01-29T02:15:12;41.75;40.23;43.14;;
42701;Laerm;28316;49.504;8.526;2023-01-29T02:17:38;41.77;39.70;43.19;;
42701;Laerm;28316;49.504;8.526;2023-01-29T02:20:23;41.76;40.23;43.09;;
42701;Laerm;28316;49.504;8.526;2023-01-29T02:23:19;41.78;39.81;43.19;;
42701;Laerm;28316;49.504;8.526;2023-01-29T02:26:08;41.78;40.23;43.24;;
42701;Laerm;28316;49.504;8.526;2023-01-29T02:32:29;41.81;39.81;43.09;;
42701;Laerm;28316;49.504;8.526;2023-01-29T02:41:03;41.81;40.03;43.04;;
42701;Laerm;28316;49.504;8.526;2023-01-29T02:46:38;41.89;40.43;43.19;;
42701;Laerm;28316;49.504;8.526;2023-01-29T02:52:13;41.90;40.23;43.09;;
42701;Laerm;28316;49.504;8.526;2023-01-29T02:55:05;41.90;39.92;43.09;;
42701;Laerm;28316;49.504;8.526;2023-01-29T02:57:40;41.90;40.53;43.29;;
42701;Laerm;28316;49.504;8.526;2023-01-29T03:03:05;41.92;40.13;43.39;;
42701;Laerm;28316;49.504;8.526;2023-01-29T03:05:51;41.92;39.92;43.34;;
42701;Laerm;28316;49.504;8.526;2023-01-29T03:08:39;41.93;40.13;43.09;;
42701;Laerm;28316;49.504;8.526;2023-01-29T03:11:10;41.93;40.43;43.04;;
42701;Laerm;28316;49.504;8.526;2023-01-29T03:14:06;41.93;40.43;43.09;;
42701;Laerm;28316;49.504;8.526;2023-01-29T03:16:50;41.92;40.13;43.19;;
42701;Laerm;28316;49.504;8.526;2023-01-29T03:19:26;41.91;40.23;43.14;;
42701;Laerm;28316;49.504;8.526;2023-01-29T03:21:57;41.91;40.43;43.04;;
42701;Laerm;28316;49.504;8.526;2023-01-29T03:24:43;41.90;40.43;43.09;;
42701;Laerm;28316;49.504;8.526;2023-01-29T03:30:30;41.85;40.53;43.09;;
42701;Laerm;28316;49.504;8.526;2023-01-29T03:33:18;41.86;40.62;43.14;;
42701;Laerm;28316;49.504;8.526;2023-01-29T03:35:55;41.90;40.53;43.09;;
42701;Laerm;28316;49.504;8.526;2023-01-29T03:38:23;41.92;40.54;43.24;;
42701;Laerm;28316;49.504;8.526;2023-01-29T03:41:01;41.93;40.53;43.19;;
42701;Laerm;28316;49.504;8.526;2023-01-29T03:43:46;41.93;40.33;43.00;;
42701;Laerm;28316;49.504;8.526;2023-01-29T03:46:37;41.95;40.53;43.04;;
42701;Laerm;28316;49.504;8.526;2023-01-29T03:49:28;41.96;40.62;43.19;;
42701;Laerm;28316;49.504;8.526;2023-01-29T03:52:41;41.98;40.43;43.29;;
42701;Laerm;28316;49.504;8.526;2023-01-29T03:55:53;41.99;40.71;43.24;;
42701;Laerm;28316;49.504;8.526;2023-01-29T03:58:45;41.98;40.53;43.29;;
42701;Laerm;28316;49.504;8.526;2023-01-29T04:01:29;42.01;40.80;43.19;;
42701;Laerm;28316;49.504;8.526;2023-01-29T04:04:26;42.00;40.62;43.09;;
42701;Laerm;28316;49.504;8.526;2023-01-29T04:06:51;42.03;40.63;43.19;;
42701;Laerm;28316;49.504;8.526;2023-01-29T04:09:31;42.04;40.53;43.29;;
42701;Laerm;28316;49.504;8.526;2023-01-29T04:12:07;42.05;40.71;43.24;;
42701;Laerm;28316;49.504;8.526;2023-01-29T04:14:37;42.04;40.62;43.19;;
42701;Laerm;28316;49.504;8.526;2023-01-29T04:17:16;42.05;40.53;43.14;;
42701;Laerm;28316;49.504;8.526;2023-01-29T04:19:43;42.04;40.62;43.29;;
42701;Laerm;28316;49.504;8.526;2023-01-29T04:22:20;42.04;40.03;43.19;;
42701;Laerm;28316;49.504;8.526;2023-01-29T04:24:48;42.05;40.53;43.29;;
42701;Laerm;28316;49.504;8.526;2023-01-29T04:30:52;42.03;40.62;43.24;;
42701;Laerm;28316;49.504;8.526;2023-01-29T04:36:33;42.04;40.43;43.14;;
42701;Laerm;28316;49.504;8.526;2023-01-29T04:39:33;42.04;40.43;43.14;;
42701;Laerm;28316;49.504;8.526;2023-01-29T04:42:43;42.03;40.43;43.19;;
42701;Laerm;28316;49.504;8.526;2023-01-29T04:48:29;42.03;40.43;43.19;;
42701;Laerm;28316;49.504;8.526;2023-01-29T04:51:29;42.03;40.43;43.34;;
42701;Laerm;28316;49.504;8.526;2023-01-29T04:54:07;42.03;40.71;43.19;;
42701;Laerm;28316;49.504;8.526;2023-01-29T04:56:45;42.02;40.53;43.14;;
42701;Laerm;28316;49.504;8.526;2023-01-29T04:59:20;42.01;40.62;43.29;;
42701;Laerm;28316;49.504;8.526;2023-01-29T05:01:47;42.00;40.80;43.04;;
42701;Laerm;28316;49.504;8.526;2023-01-29T05:04:18;41.97;40.53;43.19;;
42701;Laerm;28316;49.504;8.526;2023-01-29T05:06:45;41.94;40.43;43.09;;
42701;Laerm;28316;49.504;8.526;2023-01-29T05:09:15;41.92;40.36;43.14;;
42701;Laerm;28316;49.504;8.526;2023-01-29T05:11:42;41.91;40.36;43.19;;
42701;Laerm;28316;49.504;8.526;2023-01-29T05:14:12;41.90;40.43;43.19;;
42701;Laerm;28316;49.504;8.526;2023-01-29T05:16:46;41.88;40.53;43.04;;
42701;Laerm;28316;49.504;8.526;2023-01-29T05:19:15;41.88;40.43;43.04;;
42701;Laerm;28316;49.504;8.526;2023-01-29T05:21:45;41.85;40.33;43.04;;
42701;Laerm;28316;49.504;8.526;2023-01-29T05:24:24;41.83;40.43;42.93;;
42701;Laerm;28316;49.504;8.526;2023-01-29T05:26:52;41.87;40.53;42.98;;
42701;Laerm;28316;49.504;8.526;2023-01-29T05:29:42;41.89;40.33;43.09;;
42701;Laerm;28316;49.504;8.526;2023-01-29T05:32:09;41.88;40.33;42.93;;
42701;Laerm;28316;49.504;8.526;2023-01-29T05:34:34;41.89;40.62;43.14;;
42701;Laerm;28316;49.504;8.526;2023-01-29T05:37:00;41.92;40.43;43.19;;
42701;Laerm;28316;49.504;8.526;2023-01-29T05:39:26;41.92;40.43;43.14;;
42701;Laerm;28316;49.504;8.526;2023-01-29T05:41:51;41.94;40.62;42.93;;
42701;Laerm;28316;49.504;8.526;2023-01-29T05:44:17;41.93;40.43;43.09;;
42701;Laerm;28316;49.504;8.526;2023-01-29T05:46:43;41.99;40.53;43.19;;
42701;Laerm;28316;49.504;8.526;2023-01-29T05:49:09;41.98;40.43;43.04;;
42701;Laerm;28316;49.504;8.526;2023-01-29T05:51:35;42.01;40.71;43.09;;
42701;Laerm;28316;49.504;8.526;2023-01-29T05:54:00;42.01;40.80;43.14;;
42701;Laerm;28316;49.504;8.526;2023-01-29T05:56:26;42.02;40.33;43.19;;
42701;Laerm;28316;49.504;8.526;2023-01-29T05:58:52;42.02;40.62;43.14;;
42701;Laerm;28316;49.504;8.526;2023-01-29T06:01:22;42.00;40.62;43.14;;
42701;Laerm;28316;49.504;8.526;2023-01-29T06:03:48;41.99;40.43;43.14;;
42701;Laerm;28316;49.504;8.526;2023-01-29T06:06:14;41.99;40.43;43.04;;
42701;Laerm;28316;49.504;8.526;2023-01-29T06:08:40;41.99;40.71;43.09;;
42701;Laerm;28316;49.504;8.526;2023-01-29T06:11:09;41.96;40.53;43.09;;
42701;Laerm;28316;49.504;8.526;2023-01-29T06:13:35;41.90;40.62;42.98;;
42701;Laerm;28316;49.504;8.526;2023-01-29T06:16:07;41.87;40.53;43.04;;
42701;Laerm;28316;49.504;8.526;2023-01-29T06:18:35;41.88;40.43;43.09;;
42701;Laerm;28316;49.504;8.526;2023-01-29T06:21:06;41.91;40.71;43.09;;
42701;Laerm;28316;49.504;8.526;2023-01-29T06:23:32;41.95;40.33;43.04;;
42701;Laerm;28316;49.504;8.526;2023-01-29T06:26:13;41.97;40.80;43.04;;
42701;Laerm;28316;49.504;8.526;2023-01-29T06:28:40;41.98;40.71;42.98;;
42701;Laerm;28316;49.504;8.526;2023-01-29T06:31:07;42.00;40.71;43.09;;
42701;Laerm;28316;49.504;8.526;2023-01-29T06:33:33;42.05;40.62;43.14;;
42701;Laerm;28316;49.504;8.526;2023-01-29T06:36:02;42.04;40.80;43.24;;
42701;Laerm;28316;49.504;8.526;2023-01-29T06:38:29;42.03;40.53;43.34;;
42701;Laerm;28316;49.504;8.526;2023-01-29T06:40:56;42.00;40.62;43.14;;
42701;Laerm;28316;49.504;8.526;2023-01-29T06:43:22;41.98;40.23;43.19;;
42701;Laerm;28316;49.504;8.526;2023-01-29T06:45:57;41.97;40.43;43.14;;
42701;Laerm;28316;49.504;8.526;2023-01-29T06:48:24;41.98;40.62;43.14;;
42701;Laerm;28316;49.504;8.526;2023-01-29T06:50:50;42.00;40.53;43.04;;
42701;Laerm;28316;49.504;8.526;2023-01-29T06:53:16;42.00;40.62;43.14;;
42701;Laerm;28316;49.504;8.526;2023-01-29T06:55:49;41.96;40.53;43.14;;
42701;Laerm;28316;49.504;8.526;2023-01-29T06:58:15;41.95;40.80;43.04;;
42701;Laerm;28316;49.504;8.526;2023-01-29T07:00:41;41.94;40.62;42.93;;
42701;Laerm;28316;49.504;8.526;2023-01-29T07:03:08;41.91;40.62;43.04;;
42701;Laerm;28316;49.504;8.526;2023-01-29T07:05:35;41.94;40.53;43.04;;
42701;Laerm;28316;49.504;8.526;2023-01-29T07:08:01;41.98;40.71;43.09;;
42701;Laerm;28316;49.504;8.526;2023-01-29T07:10:27;41.97;40.43;43.09;;
42701;Laerm;28316;49.504;8.526;2023-01-29T07:12:53;42.01;40.80;43.14;;
42701;Laerm;28316;49.504;8.526;2023-01-29T07:15:19;42.01;40.71;43.39;;
42701;Laerm;28316;49.504;8.526;2023-01-29T07:17:56;41.96;40.23;43.09;;
42701;Laerm;28316;49.504;8.526;2023-01-29T07:20:27;42.05;40.62;43.24;;
42701;Laerm;28316;49.504;8.526;2023-01-29T07:22:55;42.10;40.80;43.49;;
42701;Laerm;28316;49.504;8.526;2023-01-29T07:25:21;42.10;40.80;43.19;;
42701;Laerm;28316;49.504;8.526;2023-01-29T07:27:47;42.10;40.71;43.39;;
42701;Laerm;28316;49.504;8.526;2023-01-29T07:30:13;42.12;40.80;43.34;;
42701;Laerm;28316;49.504;8.526;2023-01-29T07:32:39;42.11;40.80;43.24;;
42701;Laerm;28316;49.504;8.526;2023-01-29T07:35:05;42.10;40.80;43.19;;
42701;Laerm;28316;49.504;8.526;2023-01-29T07:37:31;42.10;40.62;43.24;;
42701;Laerm;28316;49.504;8.526;2023-01-29T07:39:57;42.10;40.71;43.24;;
42701;Laerm;28316;49.504;8.526;2023-01-29T07:42:23;42.09;40.89;43.29;;
42701;Laerm;28316;49.504;8.526;2023-01-29T07:44:49;42.10;40.71;43.19;;
42701;Laerm;28316;49.504;8.526;2023-01-29T07:47:14;42.12;40.80;43.24;;
42701;Laerm;28316;49.504;8.526;2023-01-29T07:49:40;42.12;40.80;43.29;;
42701;Laerm;28316;49.504;8.526;2023-01-29T07:52:06;42.15;40.80;43.33;;
42701;Laerm;28316;49.504;8.526;2023-01-29T07:54:31;42.13;40.89;43.34;;
42701;Laerm;28316;49.504;8.526;2023-01-29T07:56:57;42.15;40.80;43.29;;
42701;Laerm;28316;49.504;8.526;2023-01-29T07:59:22;42.16;40.71;43.68;;
42701;Laerm;28316;49.504;8.526;2023-01-29T08:01:48;42.15;40.43;43.19;;
42701;Laerm;28316;49.504;8.526;2023-01-29T08:04:14;42.17;40.62;43.19;;
42701;Laerm;28316;49.504;8.526;2023-01-29T08:06:40;42.17;40.89;43.24;;
42701;Laerm;28316;49.504;8.526;2023-01-29T08:09:06;42.18;40.62;43.39;;
42701;Laerm;28316;49.504;8.526;2023-01-29T08:11:33;42.17;40.80;43.24;;
42701;Laerm;28316;49.504;8.526;2023-01-29T08:13:59;42.17;40.89;43.29;;
42701;Laerm;28316;49.504;8.526;2023-01-29T08:16:24;42.17;40.62;43.39;;
42701;Laerm;28316;49.504;8.526;2023-01-29T08:18:50;42.18;40.71;43.49;;
42701;Laerm;28316;49.504;8.526;2023-01-29T08:21:16;42.17;40.80;43.34;;
42701;Laerm;28316;49.504;8.526;2023-01-29T08:23:41;42.15;40.80;43.39;;
42701;Laerm;28316;49.504;8.526;2023-01-29T08:26:07;42.14;40.62;43.29;;
42701;Laerm;28316;49.504;8.526;2023-01-29T08:28:33;42.14;40.71;43.24;;
42701;Laerm;28316;49.504;8.526;2023-01-29T08:31:00;42.10;40.62;43.19;;
42701;Laerm;28316;49.504;8.526;2023-01-29T08:33:26;42.09;40.62;43.14;;
42701;Laerm;28316;49.504;8.526;2023-01-29T08:35:53;42.06;40.62;43.34;;
42701;Laerm;28316;49.504;8.526;2023-01-29T08:38:19;42.03;40.13;43.19;;
42701;Laerm;28316;49.504;8.526;2023-01-29T08:40:45;41.99;40.33;43.49;;
42701;Laerm;28316;49.504;8.526;2023-01-29T08:43:12;41.95;40.43;43.54;;
42701;Laerm;28316;49.504;8.526;2023-01-29T08:45:42;41.92;40.23;43.19;;
42701;Laerm;28316;49.504;8.526;2023-01-29T08:48:09;41.87;40.33;43.14;;
42701;Laerm;28316;49.504;8.526;2023-01-29T08:50:36;41.85;40.43;43.04;;
42701;Laerm;28316;49.504;8.526;2023-01-29T08:53:05;41.86;40.62;43.14;;
42701;Laerm;28316;49.504;8.526;2023-01-29T08:55:36;41.83;40.13;43.05;;
42701;Laerm;28316;49.504;8.526;2023-01-29T08:58:12;41.83;40.13;43.29;;
42701;Laerm;28316;49.504;8.526;2023-01-29T09:00:38;41.83;40.23;43.19;;
42701;Laerm;28316;49.504;8.526;2023-01-29T09:03:03;41.84;40.13;43.04;;
42701;Laerm;28316;49.504;8.526;2023-01-29T09:05:33;41.86;40.36;43.14;;
42701;Laerm;28316;49.504;8.526;2023-01-29T09:07:59;41.84;40.33;43.09;;
42701;Laerm;28316;49.504;8.526;2023-01-29T09:10:25;41.86;40.43;43.14;;
42701;Laerm;28316;49.504;8.526;2023-01-29T09:12:51;41.83;40.23;43.04;;
42701;Laerm;28316;49.504;8.526;2023-01-29T09:15:17;41.85;40.13;43.04;;
42701;Laerm;28316;49.504;8.526;2023-01-29T09:17:42;41.83;40.23;43.09;;
42701;Laerm;28316;49.504;8.526;2023-01-29T09:20:09;41.81;40.13;43.14;;
42701;Laerm;28316;49.504;8.526;2023-01-29T09:22:35;41.79;40.23;43.09;;
42701;Laerm;28316;49.504;8.526;2023-01-29T09:25:01;41.76;40.13;42.93;;
42701;Laerm;28316;49.504;8.526;2023-01-29T09:27:27;41.76;40.23;43.04;;
42701;Laerm;28316;49.504;8.526;2023-01-29T09:29:52;41.74;39.92;43.04;;
42701;Laerm;28316;49.504;8.526;2023-01-29T09:32:18;41.76;40.13;43.04;;
42701;Laerm;28316;49.504;8.526;2023-01-29T09:34:44;41.73;40.13;42.93;;
42701;Laerm;28316;49.504;8.526;2023-01-29T09:37:10;41.70;39.92;43.04;;
42701;Laerm;28316;49.504;8.526;2023-01-29T09:39:35;41.68;40.13;43.09;;
42701;Laerm;28316;49.504;8.526;2023-01-29T09:42:11;41.67;40.13;43.09;;
42701;Laerm;28316;49.504;8.526;2023-01-29T09:47:34;41.59;39.89;43.05;;
42701;Laerm;28316;49.504;8.526;2023-01-29T09:50:07;41.59;39.46;42.98;;
42701;Laerm;28316;49.504;8.526;2023-01-29T09:52:42;41.56;39.92;42.82;;
42701;Laerm;28316;49.504;8.526;2023-01-29T09:55:32;41.54;39.46;42.98;;
42701;Laerm;28316;49.504;8.526;2023-01-29T10:00:52;41.52;39.81;43.14;;
42701;Laerm;28316;49.504;8.526;2023-01-29T10:12:59;41.53;39.70;42.76;;
42701;Laerm;28316;49.504;8.526;2023-01-29T10:21:46;41.53;39.70;43.04;;
42701;Laerm;28316;49.504;8.526;2023-01-29T10:24:34;41.56;39.92;43.19;;
42701;Laerm;28316;49.504;8.526;2023-01-29T10:27:02;41.55;39.46;42.93;;
42701;Laerm;28316;49.504;8.526;2023-01-29T10:29:36;41.55;39.58;43.09;;
42701;Laerm;28316;49.504;8.526;2023-01-29T10:32:05;41.53;39.81;43.09;;
42701;Laerm;28316;49.504;8.526;2023-01-29T10:37:42;41.52;39.81;42.93;;
42701;Laerm;28316;49.504;8.526;2023-01-29T10:40:22;41.53;39.58;42.85;;
42701;Laerm;28316;49.504;8.526;2023-01-29T10:43:11;41.51;39.78;42.98;;
42701;Laerm;28316;49.504;8.526;2023-01-29T10:45:52;41.51;39.70;42.82;;
42701;Laerm;28316;49.504;8.526;2023-01-29T10:54:24;41.52;39.70;42.98;;
42701;Laerm;28316;49.504;8.526;2023-01-29T11:02:26;41.50;39.70;42.76;;
42701;Laerm;28316;49.504;8.526;2023-01-29T11:04:52;41.50;39.81;43.09;;
42701;Laerm;28316;49.504;8.526;2023-01-29T11:07:19;41.49;39.70;42.88;;
42701;Laerm;28316;49.504;8.526;2023-01-29T11:10:13;41.46;39.70;42.82;;
42701;Laerm;28316;49.504;8.526;2023-01-29T11:12:39;41.42;39.46;42.82;;
42701;Laerm;28316;49.504;8.526;2023-01-29T11:15:34;41.42;39.58;42.93;;
42701;Laerm;28316;49.504;8.526;2023-01-29T11:18:06;41.40;39.35;42.88;;
42701;Laerm;28316;49.504;8.526;2023-01-29T11:20:35;41.43;39.70;42.79;;
42701;Laerm;28316;49.504;8.526;2023-01-29T11:23:01;41.44;39.46;42.88;;
42701;Laerm;28316;49.504;8.526;2023-01-29T11:25:27;41.36;39.21;42.88;;
42701;Laerm;28316;49.504;8.526;2023-01-29T11:27:59;41.32;39.46;42.76;;
42701;Laerm;28316;49.504;8.526;2023-01-29T11:30:37;41.26;39.21;42.76;;
42701;Laerm;28316;49.504;8.526;2023-01-29T11:33:22;41.20;39.21;42.88;;
42701;Laerm;28316;49.504;8.526;2023-01-29T11:35:48;41.24;39.21;42.65;;
42701;Laerm;28316;49.504;8.526;2023-01-29T11:40:47;41.23;39.58;42.88;;
42701;Laerm;28316;49.504;8.526;2023-01-29T11:43:28;41.19;39.34;42.71;;
42701;Laerm;28316;49.504;8.526;2023-01-29T11:46:05;41.15;39.21;42.65;;
42701;Laerm;28316;49.504;8.526;2023-01-29T11:48:48;41.12;38.95;42.71;;
42701;Laerm;28316;49.504;8.526;2023-01-29T11:51:27;41.09;38.67;42.65;;
42701;Laerm;28316;49.504;8.526;2023-01-29T11:54:01;41.03;38.67;42.47;;
42701;Laerm;28316;49.504;8.526;2023-01-29T11:56:38;41.07;38.81;42.65;;
42701;Laerm;28316;49.504;8.526;2023-01-29T11:59:05;41.04;38.95;42.59;;
42701;Laerm;28316;49.504;8.526;2023-01-29T12:01:45;40.96;38.67;42.65;;
42701;Laerm;28316;49.504;8.526;2023-01-29T12:04:22;40.91;38.67;42.76;;
42701;Laerm;28316;49.504;8.526;2023-01-29T12:06:50;40.82;38.21;42.41;;
42701;Laerm;28316;49.504;8.526;2023-01-29T12:09:24;40.77;38.37;42.41;;
42701;Laerm;28316;49.504;8.526;2023-01-29T12:11:52;40.75;38.18;42.41;;
42701;Laerm;28316;49.504;8.526;2023-01-29T12:14:29;40.76;38.52;42.53;;
42701;Laerm;28316;49.504;8.526;2023-01-29T12:17:18;40.79;38.52;42.47;;
42701;Laerm;28316;49.504;8.526;2023-01-29T12:19:54;40.74;38.67;42.53;;
42701;Laerm;28316;49.504;8.526;2023-01-29T12:31:35;40.53;38.21;42.24;;
42701;Laerm;28316;49.504;8.526;2023-01-29T12:34:22;40.48;37.70;42.29;;
42701;Laerm;28316;49.504;8.526;2023-01-29T12:39:54;40.50;38.05;42.03;;
42701;Laerm;28316;49.504;8.526;2023-01-29T12:42:22;40.55;38.21;42.22;;
42701;Laerm;28316;49.504;8.526;2023-01-29T12:44:58;40.57;38.37;42.29;;
42701;Laerm;28316;49.504;8.526;2023-01-29T12:47:35;40.57;38.05;42.29;;
42701;Laerm;28316;49.504;8.526;2023-01-29T12:50:13;40.55;38.32;42.22;;
42701;Laerm;28316;49.504;8.526;2023-01-29T12:52:58;40.54;38.21;42.35;;
42701;Laerm;28316;49.504;8.526;2023-01-29T12:58:19;40.57;37.87;42.29;;
42701;Laerm;28316;49.504;8.526;2023-01-29T13:00:50;40.54;38.21;42.29;;
42701;Laerm;28316;49.504;8.526;2023-01-29T13:03:26;40.54;38.05;42.53;;
42701;Laerm;28316;49.504;8.526;2023-01-29T13:06:02;40.54;37.32;42.22;;
42701;Laerm;28316;49.504;8.526;2023-01-29T13:08:44;40.52;38.05;42.35;;
42701;Laerm;28316;49.504;8.526;2023-01-29T13:11:19;40.45;38.21;42.41;;
42701;Laerm;28316;49.504;8.526;2023-01-29T13:13:54;40.40;37.12;42.29;;
42701;Laerm;28316;49.504;8.526;2023-01-29T13:16:31;40.39;37.88;42.29;;
42701;Laerm;28316;49.504;8.526;2023-01-29T13:19:02;40.42;38.05;42.16;;
42701;Laerm;28316;49.504;8.526;2023-01-29T13:21:35;40.48;38.21;42.35;;
42701;Laerm;28316;49.504;8.526;2023-01-29T13:24:17;40.50;38.21;42.16;;
42701;Laerm;28316;49.504;8.526;2023-01-29T13:26:45;40.51;38.52;42.35;;
42701;Laerm;28316;49.504;8.526;2023-01-29T13:29:30;40.52;37.70;42.53;;
42701;Laerm;28316;49.504;8.526;2023-01-29T13:32:02;40.54;38.05;42.22;;
42701;Laerm;28316;49.504;8.526;2023-01-29T13:34:36;40.55;38.21;42.29;;
42701;Laerm;28316;49.504;8.526;2023-01-29T13:37:18;40.49;37.88;42.71;;
42701;Laerm;28316;49.504;8.526;2023-01-29T13:39:49;40.48;37.88;42.65;;
42701;Laerm;28316;49.504;8.526;2023-01-29T13:42:47;40.47;38.05;42.35;;
42701;Laerm;28316;49.504;8.526;2023-01-29T13:45:41;40.41;38.05;42.24;;
42701;Laerm;28316;49.504;8.526;2023-01-29T13:50:40;40.36;37.88;42.03;;
42701;Laerm;28316;49.504;8.526;2023-01-29T13:53:18;40.33;37.88;42.22;;
42701;Laerm;28316;49.504;8.526;2023-01-29T13:55:45;40.34;36.91;42.29;;
42701;Laerm;28316;49.504;8.526;2023-01-29T14:01:03;40.30;37.52;42.03;;
42701;Laerm;28316;49.504;8.526;2023-01-29T14:05:59;40.30;37.88;42.29;;
42701;Laerm;28316;49.504;8.526;2023-01-29T14:13:45;40.34;37.32;42.16;;
42701;Laerm;28316;49.504;8.526;2023-01-29T14:18:46;40.34;37.88;44.11;;
42701;Laerm;28316;49.504;8.526;2023-01-29T14:23:52;40.41;37.88;42.53;;
42701;Laerm;28316;49.504;8.526;2023-01-29T14:37:19;40.44;33.90;43.58;;
42701;Laerm;28316;49.504;8.526;2023-01-29T14:42:32;40.39;37.52;42.41;;
42701;Laerm;28316;49.504;8.526;2023-01-29T14:45:29;40.29;37.12;42.22;;
42701;Laerm;28316;49.504;8.526;2023-01-29T14:53:30;40.36;37.88;42.09;;
42701;Laerm;28316;49.504;8.526;2023-01-29T14:56:40;40.19;36.69;42.03;;
42701;Laerm;28316;49.504;8.526;2023-01-29T15:01:58;40.23;36.20;42.47;;
42701;Laerm;28316;49.504;8.526;2023-01-29T15:04:33;40.32;37.12;42.41;;
42701;Laerm;28316;49.504;8.526;2023-01-29T15:07:13;40.21;36.45;42.16;;
42701;Laerm;28316;49.504;8.526;2023-01-29T15:09:52;40.24;36.69;42.41;;
42701;Laerm;28316;49.504;8.526;2023-01-29T15:12:38;40.25;37.12;42.22;;
42701;Laerm;28316;49.504;8.526;2023-01-29T15:15:34;40.23;35.66;42.47;;
42701;Laerm;28316;49.504;8.526;2023-01-29T15:18:12;40.24;37.12;42.09;;
42701;Laerm;28316;49.504;8.526;2023-01-29T15:20:41;40.26;36.69;42.41;;
42701;Laerm;28316;49.504;8.526;2023-01-29T15:23:27;40.28;37.32;42.22;;
42701;Laerm;28316;49.504;8.526;2023-01-29T15:26:12;40.25;37.32;42.03;;
42701;Laerm;28316;49.504;8.526;2023-01-29T15:28:42;40.28;36.20;42.16;;
42701;Laerm;28316;49.504;8.526;2023-01-29T15:31:15;40.28;37.52;42.41;;
42701;Laerm;28316;49.504;8.526;2023-01-29T15:33:45;40.29;36.69;42.35;;
42701;Laerm;28316;49.504;8.526;2023-01-29T15:36:28;40.29;37.88;42.24;;
42701;Laerm;28316;49.504;8.526;2023-01-29T15:41:36;40.35;38.05;42.35;;
42701;Laerm;28316;49.504;8.526;2023-01-29T15:44:02;40.38;37.70;41.96;;
42701;Laerm;28316;49.504;8.526;2023-01-29T15:46:39;40.40;37.52;42.09;;
42701;Laerm;28316;49.504;8.526;2023-01-29T15:49:09;40.43;37.88;42.22;;
42701;Laerm;28316;49.504;8.526;2023-01-29T15:51:38;40.45;38.21;42.16;;
42701;Laerm;28316;49.504;8.526;2023-01-29T15:54:09;40.49;38.05;42.59;;
42701;Laerm;28316;49.504;8.526;2023-01-29T15:56:42;40.53;37.87;42.22;;
42701;Laerm;28316;49.504;8.526;2023-01-29T15:59:20;40.56;38.21;42.93;;
42701;Laerm;28316;49.504;8.526;2023-01-29T16:01:46;40.60;38.37;42.41;;
42701;Laerm;28316;49.504;8.526;2023-01-29T16:04:18;40.65;38.37;42.35;;
42701;Laerm;28316;49.504;8.526;2023-01-29T16:06:46;40.66;38.37;42.41;;
42701;Laerm;28316;49.504;8.526;2023-01-29T16:09:18;40.70;38.81;42.65;;
42701;Laerm;28316;49.504;8.526;2023-01-29T16:11:45;40.75;38.37;42.22;;
42701;Laerm;28316;49.504;8.526;2023-01-29T16:14:14;40.89;38.67;42.76;;
42701;Laerm;28316;49.504;8.526;2023-01-29T16:16:42;41.01;38.81;42.53;;
42701;Laerm;28316;49.504;8.526;2023-01-29T16:19:26;41.16;39.34;42.88;;
42701;Laerm;28316;49.504;8.526;2023-01-29T16:21:59;41.24;39.34;42.82;;
42701;Laerm;28316;49.504;8.526;2023-01-29T16:24:26;41.35;39.58;42.59;;